Terminal Aerodrome Forecast
Issued by NWS Sterling, VA

Current Version | Previous Version | Text Only | Print | Product List | Glossary Off
Versions: 1 2 3 4 5 6 7 8 9 10 11 12 13 14 15 16 17 18

540
FTUS41 KLWX 222342
TAFDCA
TAF
KDCA 222342Z 2300/2324 36012KT P6SM -RA SCT015 OVC060
     FM230100 36007KT P6SM FEW025 OVC060
     FM231500 04006KT P6SM BKN130
     FM232000 08006KT P6SM OVC120=

USA.gov is the U.S. government's official web portal to all federal, state and local government web resources and services.